Time;durP1;ratioP1;P1;durP2;ratioP2;P2;SDS_P1;SDS_P2;PMS_P1;PMS_P2;Temp;Humidity;BMP_temperature;BMP_pressure;BME280_temperature;BME280_humidity;BME280_pressure;Samples;Min_cycle;Max_cycle;Signal;HPM_P1;HPM_P2
2023/06/23 00:05:07;;;;;;;6.80;5.30;;;;;;;20.39;67.59;96568.81;10140998;29;20136;-51
2023/06/23 00:10:27;;;;;;;6.32;5.60;;;;;;;20.39;67.71;96580.44;10134840;29;20048;-52
2023/06/23 00:15:46;;;;;;;7.88;5.75;;;;;;;20.38;67.72;96597.78;10114918;29;20049;-52
2023/06/23 00:21:07;;;;;;;7.00;5.78;;;;;;;20.38;67.77;96592.34;10114803;29;20081;-52
2023/06/23 00:26:27;;;;;;;6.47;5.88;;;;;;;20.39;67.70;96574.22;10114442;29;20037;-52
2023/06/23 00:31:47;;;;;;;7.10;5.65;;;;;;;20.38;67.60;96559.91;10114230;29;20053;-52
2023/06/23 00:37:06;;;;;;;6.93;5.70;;;;;;;20.38;67.43;96592.34;10114197;29;20489;-52
2023/06/23 00:42:25;;;;;;;6.25;5.65;;;;;;;20.38;67.53;96586.94;10113982;29;20549;-51
2023/06/23 00:47:45;;;;;;;6.03;5.38;;;;;;;20.39;67.60;96590.47;10113671;29;20551;-52
2023/06/23 00:53:05;;;;;;;5.55;5.05;;;;;;;20.39;67.43;96590.47;10100721;29;20135;-53
2023/06/23 00:58:25;;;;;;;5.88;5.13;;;;;;;20.38;67.45;96581.53;10126730;29;20056;-53
2023/06/23 01:03:45;;;;;;;6.15;5.57;;;;;;;20.38;67.39;96624.81;10124748;29;20052;-52
2023/06/23 01:09:20;;;;;;;6.18;5.13;;;;;;;20.37;67.27;96655.72;10151787;29;20041;-52
2023/06/23 01:14:59;;;;;;;6.18;5.55;;;;;;;20.38;67.30;96642.97;10137492;29;20056;-51
2023/06/23 01:20:21;;;;;;;;;;;;;;;20.38;67.23;96645.69;10151817;29;20073;-52
2023/06/23 01:25:55;;;;;;;6.75;5.15;;;;;;;20.38;67.21;96637.56;10136984;29;19930;-52
2023/06/23 01:31:25;;;;;;;5.18;4.70;;;;;;;20.38;67.20;96659.22;10150927;29;20052;-52
2023/06/23 01:36:55;;;;;;;5.57;5.05;;;;;;;20.38;67.24;96670.03;10136545;29;20048;-52
2023/06/23 01:42:16;;;;;;;6.10;5.13;;;;;;;20.37;67.18;96660.34;10136311;29;20040;-52
2023/06/23 01:47:38;;;;;;;7.30;5.20;;;;;;;20.36;67.19;96656.84;10137768;29;20053;-52
2023/06/23 01:52:57;;;;;;;6.13;4.75;;;;;;;20.37;67.16;96634.09;10123935;29;20052;-52
2023/06/23 01:58:17;;;;;;;5.93;4.88;;;;;;;20.37;66.98;96617.06;10149736;29;20574;-52
2023/06/23 02:03:37;;;;;;;9.30;5.30;;;;;;;20.38;66.97;96594.28;10121418;29;20055;-53
2023/06/23 02:08:58;;;;;;;5.90;5.30;;;;;;;20.37;66.86;96593.50;10149612;29;20049;-52
2023/06/23 02:14:20;;;;;;;5.18;4.70;;;;;;;20.37;67.06;96598.13;10148309;29;20049;-52
2023/06/23 02:19:45;;;;;;;5.57;5.07;;;;;;;20.37;66.95;96577.28;10122782;29;20128;-53
2023/06/23 02:25:05;;;;;;;5.80;5.22;;;;;;;20.38;67.01;96575.34;10148763;29;20051;-52
2023/06/23 02:30:28;;;;;;;5.43;4.90;;;;;;;20.37;66.98;96604.31;10121757;29;20386;-52
2023/06/23 02:35:50;;;;;;;5.47;4.80;;;;;;;20.36;67.04;96597.31;10148474;29;20044;-52
2023/06/23 02:41:11;;;;;;;5.20;4.60;;;;;;;20.37;66.83;96587.31;10121865;29;20060;-52
2023/06/23 02:46:33;;;;;;;6.40;4.78;;;;;;;20.37;66.96;96592.72;10148250;29;20044;-52
2023/06/23 02:51:58;;;;;;;5.28;4.70;;;;;;;20.37;66.91;96573.78;10124638;29;20060;-52
2023/06/23 02:57:19;;;;;;;5.40;4.90;;;;;;;20.36;66.88;96554.03;10120615;29;20041;-53
2023/06/23 03:02:42;;;;;;;4.97;4.47;;;;;;;20.37;66.88;96552.13;10133786;29;20484;-52
2023/06/23 03:08:01;;;;;;;4.93;4.53;;;;;;;20.36;66.75;96554.03;10121299;29;20048;-52
2023/06/23 03:13:21;;;;;;;4.80;4.30;;;;;;;20.35;66.87;96576.81;10147684;29;20052;-52
2023/06/23 03:18:43;;;;;;;5.20;4.80;;;;;;;20.37;66.94;96598.13;10133050;29;20048;-52
2023/06/23 03:24:04;;;;;;;4.90;4.40;;;;;;;20.36;66.91;96602.72;10147346;29;20053;-52
2023/06/23 03:29:29;;;;;;;4.85;4.35;;;;;;;20.36;66.84;96618.97;10114945;29;20052;-52
2023/06/23 03:35:02;;;;;;;4.78;4.38;;;;;;;20.36;66.85;96613.56;10133222;29;20444;-52
2023/06/23 03:40:23;;;;;;;4.82;4.43;;;;;;;20.35;66.82;96620.88;10133259;29;20051;-52
2023/06/23 03:45:45;;;;;;;4.85;4.45;;;;;;;20.36;66.82;96627.06;10147062;29;20092;-52
2023/06/23 03:51:05;;;;;;;4.75;4.28;;;;;;;20.37;66.79;96644.13;10139049;29;20057;-52
2023/06/23 03:56:26;;;;;;;4.82;4.43;;;;;;;20.37;66.61;96665.78;10146824;29;20501;-52
2023/06/23 04:01:47;;;;;;;4.00;3.70;;;;;;;20.36;66.82;96664.94;10132671;29;20055;-53
2023/06/23 04:07:08;;;;;;;4.30;3.90;;;;;;;20.37;66.77;96673.88;10146565;29;20041;-53
2023/06/23 04:12:28;;;;;;;4.85;4.35;;;;;;;20.36;66.68;96683.88;10132658;29;20053;-52
2023/06/23 04:17:52;;;;;;;4.35;4.00;;;;;;;20.35;66.79;96712.88;10147116;29;20049;-53
2023/06/23 04:23:12;;;;;;;4.20;3.80;;;;;;;20.37;66.74;96719.88;10146401;29;20050;-51
2023/06/23 04:28:33;;;;;;;4.28;3.88;;;;;;;20.37;66.75;96722.59;10149665;29;20048;-52
2023/06/23 04:33:53;;;;;;;4.32;3.90;;;;;;;20.37;66.80;96723.38;10138823;29;20055;-52
2023/06/23 04:39:27;;;;;;;4.07;3.67;;;;;;;20.38;66.71;96730.34;10140447;29;20068;-53
2023/06/23 04:44:50;;;;;;;4.15;3.75;;;;;;;20.39;66.77;96726.53;10152554;29;20047;-52
2023/06/23 04:50:12;;;;;;;4.35;3.95;;;;;;;20.41;66.78;96726.22;10133616;29;20455;-53
2023/06/23 04:55:35;;;;;;;3.92;3.53;;;;;;;20.41;66.90;96739.75;10152389;29;20449;-53
2023/06/23 05:00:54;;;;;;;4.32;3.92;;;;;;;20.41;66.88;96742.44;10137708;29;20100;-52
2023/06/23 05:06:16;;;;;;;4.35;3.95;;;;;;;20.40;66.86;96752.44;10151957;29;20040;-52
2023/06/23 05:11:38;;;;;;;4.28;3.88;;;;;;;20.39;66.90;96726.53;10137517;29;20041;-52
2023/06/23 05:16:59;;;;;;;4.25;3.85;;;;;;;20.41;67.07;96728.91;10137312;29;20077;-53
2023/06/23 05:22:22;;;;;;;4.20;3.80;;;;;;;20.41;67.09;96729.69;10137210;29;20051;-53
2023/06/23 05:27:45;;;;;;;3.78;3.47;;;;;;;20.42;67.13;96725.06;10136809;29;20045;-52
2023/06/23 05:33:07;;;;;;;4.10;3.80;;;;;;;20.43;67.19;96742.91;10150083;29;20052;-52
2023/06/23 05:38:27;;;;;;;4.20;3.80;;;;;;;20.43;67.23;96738.28;10150302;29;20048;-52
2023/06/23 05:43:47;;;;;;;4.10;3.55;;;;;;;20.44;67.21;96744.47;10150007;29;20051;-51
2023/06/23 05:49:09;;;;;;;7.85;3.90;;;;;;;20.44;67.91;96747.97;10147966;29;20583;-52
2023/06/23 05:54:30;;;;;;;11.00;3.53;;;;;;;20.46;69.71;96751.13;10117929;29;20049;-51
2023/06/23 06:00:09;;;;;;;9.48;3.83;;;;;;;20.45;70.22;96760.38;10144148;29;20432;-51
2023/06/23 06:05:32;;;;;;;8.07;3.70;;;;;;;20.43;70.67;96757.22;10140115;29;20045;-53
2023/06/23 06:10:52;;;;;;;6.50;3.05;;;;;;;20.41;70.65;96773.00;10096742;29;20164;-52
2023/06/23 06:16:12;;;;;;;8.60;3.28;;;;;;;20.40;70.34;96776.03;10122709;29;20053;-51
2023/06/23 06:21:33;;;;;;;5.43;3.13;;;;;;;20.40;70.09;96778.72;10122543;29;20052;-51
2023/06/23 06:26:56;;;;;;;4.53;2.88;;;;;;;20.41;69.72;96783.03;10096181;29;20045;-51
2023/06/23 06:32:16;;;;;;;4.90;2.60;;;;;;;20.42;69.38;96765.66;10110170;29;20406;-51
2023/06/23 06:37:38;;;;;;;4.50;2.47;;;;;;;20.39;69.66;96769.03;10109921;29;20056;-52
2023/06/23 06:42:58;;;;;;;3.50;2.05;;;;;;;20.39;68.55;96769.03;10123226;29;20060;-53
2023/06/23 06:48:19;;;;;;;2.75;1.85;;;;;;;20.41;68.43;96783.03;10148356;29;20040;-53
2023/06/23 06:53:39;;;;;;;4.75;2.03;;;;;;;20.40;68.62;96778.72;10148025;29;20049;-52
2023/06/23 06:58:59;;;;;;;2.85;1.80;;;;;;;20.41;68.57;96789.22;10147693;29;20041;-53
2023/06/23 07:04:19;;;;;;;4.25;1.83;;;;;;;20.44;68.56;96782.34;10147471;29;20513;-53
2023/06/23 07:09:39;;;;;;;5.43;1.92;;;;;;;20.45;68.25;96781.25;10147738;29;20381;-53
2023/06/23 07:14:58;;;;;;;2.30;1.85;;;;;;;20.48;68.41;96783.28;10135159;29;20067;-53
2023/06/23 07:20:17;;;;;;;3.20;2.08;;;;;;;20.49;68.25;96779.47;10147491;29;20084;-53
2023/06/23 07:25:37;;;;;;;5.78;1.95;;;;;;;20.51;68.17;96782.63;10147313;29;20101;-53
2023/06/23 07:30:56;;;;;;;3.58;1.50;;;;;;;20.53;67.93;96781.16;10147427;29;20049;-53
2023/06/23 07:36:15;;;;;;;2.47;1.30;;;;;;;20.51;67.50;96785.34;10147291;29;20052;-52
2023/06/23 07:41:35;;;;;;;3.00;1.30;;;;;;;20.54;66.78;96788.16;10144391;29;20045;-53
2023/06/23 07:46:55;;;;;;;2.75;1.35;;;;;;;20.54;66.48;96799.00;10146381;29;20040;-55
2023/06/23 07:52:14;;;;;;;3.80;1.20;;;;;;;20.54;66.18;96800.88;10136403;29;20120;-54
2023/06/23 07:57:34;;;;;;;2.13;1.20;;;;;;;20.53;66.04;96796.63;10146538;29;20100;-54
2023/06/23 08:02:53;;;;;;;2.42;1.27;;;;;;;20.54;66.11;96788.16;10149435;29;20044;-58
2023/06/23 08:08:12;;;;;;;1.77;1.27;;;;;;;20.56;66.02;96790.53;10140898;29;20124;-53
2023/06/23 08:13:32;;;;;;;4.32;1.60;;;;;;;20.58;66.06;96779.38;10141228;29;20056;-53
2023/06/23 08:18:52;;;;;;;3.38;1.20;;;;;;;20.60;66.03;96790.69;10153222;29;20045;-54
2023/06/23 08:24:11;;;;;;;2.50;1.35;;;;;;;20.59;66.20;96795.31;10153074;29;20044;-53
2023/06/23 08:29:31;;;;;;;4.97;1.40;;;;;;;20.59;66.63;96805.34;10153303;29;20100;-55
2023/06/23 08:34:50;;;;;;;4.15;1.23;;;;;;;20.60;66.86;96812.34;10153041;29;20056;-56
2023/06/23 08:40:10;;;;;;;2.08;1.48;;;;;;;20.59;66.14;96798.03;10145605;29;20107;-55
2023/06/23 08:45:32;;;;;;;2.55;1.40;;;;;;;20.57;65.90;96816.47;10152192;29;20049;-51
2023/06/23 08:51:00;;;;;;;2.22;1.40;;;;;;;20.55;65.89;96827.63;10145902;29;20166;-52
2023/06/23 08:56:19;;;;;;;2.50;1.37;;;;;;;20.56;65.83;96825.72;10139980;29;20090;-52
2023/06/23 09:01:39;;;;;;;4.40;1.30;;;;;;;20.56;65.85;96831.13;10152696;29;20101;-52
2023/06/23 09:06:59;;;;;;;2.67;1.40;;;;;;;20.55;65.05;96829.56;10152000;29;20047;-51
2023/06/23 09:12:21;;;;;;;1.80;1.60;;;;;;;20.55;65.04;96859.31;10151340;29;20386;-53
2023/06/23 09:17:42;;;;;;;1.60;1.50;;;;;;;20.53;65.42;96875.88;10151592;29;20052;-51
2023/06/23 09:23:02;;;;;;;1.83;1.60;;;;;;;20.55;65.33;96880.97;10151250;29;20505;-50
2023/06/23 09:28:27;;;;;;;3.55;1.60;;;;;;;20.57;65.34;96878.72;10150900;29;20047;-52
2023/06/23 09:33:51;;;;;;;3.80;1.50;;;;;;;20.57;65.55;96878.72;10150607;29;20489;-50
2023/06/23 09:39:14;;;;;;;5.13;1.80;;;;;;;20.57;65.81;96897.69;10150652;29;20044;-51
2023/06/23 09:44:35;;;;;;;1.95;1.50;;;;;;;20.58;65.90;96891.16;10146928;29;20055;-51
2023/06/23 09:49:54;;;;;;;5.57;2.00;;;;;;;20.59;66.18;96895.47;10141722;29;20524;-49
2023/06/23 09:55:16;;;;;;;4.07;1.80;;;;;;;20.61;66.08;96905.97;10145933;29;20064;-51
2023/06/23 10:00:35;;;;;;;3.10;1.85;;;;;;;20.62;66.14;96912.94;10146365;29;20064;-51
2023/06/23 10:05:57;;;;;;;5.00;1.77;;;;;;;20.61;66.10;96916.78;10137259;29;20108;-52
2023/06/23 10:11:28;;;;;;;3.83;1.70;;;;;;;20.61;66.22;96923.00;10149505;29;20048;-50
2023/06/23 10:16:53;;;;;;;4.07;1.80;;;;;;;20.60;66.28;96940.38;10149368;29;20041;-50
2023/06/23 10:22:18;;;;;;;4.13;1.85;;;;;;;20.60;66.23;96936.84;10149258;29;20045;-49
2023/06/23 10:27:40;;;;;;;4.78;1.90;;;;;;;20.60;66.26;96942.25;10148125;29;20484;-51
2023/06/23 10:33:02;;;;;;;5.25;2.22;;;;;;;20.59;66.43;96946.06;10136378;29;20061;-52
2023/06/23 10:38:22;;;;;;;7.07;2.25;;;;;;;20.60;66.37;96956.63;10143144;29;20528;-51
2023/06/23 10:43:46;;;;;;;5.25;2.30;;;;;;;20.60;66.35;96963.91;10134257;29;20040;-51
2023/06/23 10:49:07;;;;;;;6.85;2.60;;;;;;;20.60;66.40;96975.56;10146290;29;20497;-51
2023/06/23 10:54:28;;;;;;;5.20;2.50;;;;;;;20.60;66.43;96986.38;10121043;29;20485;-51
2023/06/23 11:00:00;;;;;;;6.00;3.00;;;;;;;20.61;66.47;96976.34;10147884;29;20049;-51
2023/06/23 11:05:19;;;;;;;6.30;2.50;;;;;;;20.61;66.46;96977.13;10147640;29;20450;-50
2023/06/23 11:10:57;;;;;;;5.50;2.80;;;;;;;20.61;66.36;96977.13;10133780;29;20044;-51
2023/06/23 11:16:17;;;;;;;6.23;2.80;;;;;;;20.62;66.48;96984.16;10147819;29;20497;-51
2023/06/23 11:21:41;;;;;;;7.00;2.80;;;;;;;20.64;66.49;96994.63;10135029;29;20067;-50
2023/06/23 11:27:02;;;;;;;6.20;2.95;;;;;;;20.62;66.59;97002.28;10147396;29;20520;-51
2023/06/23 11:32:22;;;;;;;6.00;2.60;;;;;;;20.62;66.46;96997.69;10147472;29;20095;-51
2023/06/23 11:37:42;;;;;;;5.75;2.67;;;;;;;20.61;66.60;96995.28;10151387;29;20057;-51
2023/06/23 11:43:02;;;;;;;5.40;2.85;;;;;;;20.62;66.54;97004.97;10140849;29;20044;-50
2023/06/23 11:48:28;;;;;;;6.30;3.45;;;;;;;20.64;66.56;96987.31;10154726;29;20504;-51
2023/06/23 11:53:52;;;;;;;6.55;3.10;;;;;;;20.63;66.66;96987.63;10154563;29;20051;-51
2023/06/23 11:59:12;;;;;;;7.22;2.97;;;;;;;20.63;66.65;96993.06;10154198;29;20040;-51
2023/06/23 12:04:33;;;;;;;4.10;2.72;;;;;;;20.63;66.66;96984.94;10154226;29;20045;-51
2023/06/23 12:09:54;;;;;;;4.88;2.60;;;;;;;20.64;66.74;96978.38;10139907;29;20044;-51
2023/06/23 12:15:14;;;;;;;5.03;3.03;;;;;;;20.64;66.60;96973.78;10141473;29;20056;-51
2023/06/23 12:20:47;;;;;;;4.57;2.75;;;;;;;20.65;66.74;96978.06;10153688;29;20063;-51
2023/06/23 12:26:08;;;;;;;6.03;2.63;;;;;;;20.67;66.72;96969.63;10153270;29;20052;-50
2023/06/23 12:31:27;;;;;;;5.40;2.58;;;;;;;20.66;66.75;96974.25;10141117;29;20056;-52
2023/06/23 12:36:48;;;;;;;4.63;2.40;;;;;;;20.67;66.72;96970.41;10153327;29;20485;-50
2023/06/23 12:42:08;;;;;;;5.03;2.35;;;;;;;20.67;66.73;96972.31;10153079;29;20044;-51
2023/06/23 12:47:27;;;;;;;6.90;2.72;;;;;;;20.66;66.66;96982.38;10139491;29;20056;-50
2023/06/23 12:52:47;;;;;;;4.43;2.42;;;;;;;20.66;66.50;96989.66;10141156;29;20053;-50
2023/06/23 12:58:06;;;;;;;4.45;2.50;;;;;;;20.66;66.79;96995.91;10152172;29;20053;-50
2023/06/23 13:10:40;;;;;;;3.55;2.15;;;;;;;20.68;66.65;96996.38;10098997;29;20065;-51
2023/06/23 13:16:00;;;;;;;3.20;2.47;;;;;;;20.67;66.58;97005.59;10112931;29;20439;-51
2023/06/23 13:21:19;;;;;;;5.50;2.80;;;;;;;20.66;66.72;97012.16;10112694;29;20565;-51
2023/06/23 13:26:40;;;;;;;3.55;2.40;;;;;;;20.66;66.50;97022.16;10100056;29;20071;-51
2023/06/23 13:32:00;;;;;;;4.05;2.47;;;;;;;20.66;66.53;97022.97;10111349;29;20041;-52
2023/06/23 13:37:19;;;;;;;3.65;2.50;;;;;;;20.66;66.37;97020.28;10099708;29;20060;-51
2023/06/23 13:42:42;;;;;;;4.25;2.25;;;;;;;20.66;66.36;97022.16;10111944;29;20041;-51
2023/06/23 13:48:02;;;;;;;4.68;2.60;;;;;;;20.65;66.44;97037.63;10099314;29;20085;-50
2023/06/23 13:53:24;;;;;;;4.00;2.40;;;;;;;20.66;66.50;97060.06;10098558;29;20064;-51
2023/06/23 13:58:43;;;;;;;4.55;2.50;;;;;;;20.66;66.48;97062.75;10127328;29;20409;-51
2023/06/23 14:04:03;;;;;;;3.42;2.20;;;;;;;20.65;66.32;97059.28;10149845;29;20056;-50
2023/06/23 14:09:22;;;;;;;2.95;1.90;;;;;;;20.66;66.43;97052.75;10149684;29;20055;-51
2023/06/23 14:14:42;;;;;;;4.07;2.20;;;;;;;20.66;66.29;97050.03;10149673;29;20048;-51
2023/06/23 14:20:01;;;;;;;3.83;2.10;;;;;;;20.67;66.33;97043.50;10149339;29;20049;-51
2023/06/23 14:25:21;;;;;;;3.00;2.33;;;;;;;20.67;66.31;97043.50;10136553;29;20063;-51
2023/06/23 14:30:40;;;;;;;3.08;2.28;;;;;;;20.66;66.30;97055.47;10148934;29;20528;-50
2023/06/23 14:36:00;;;;;;;3.63;2.05;;;;;;;20.66;66.17;97052.75;10148871;29;20063;-51
2023/06/23 14:41:20;;;;;;;2.72;1.95;;;;;;;20.67;66.25;97059.75;10136171;29;20057;-51
2023/06/23 14:46:39;;;;;;;2.90;2.00;;;;;;;20.68;66.28;97052.41;10148234;29;20052;-50
2023/06/23 14:51:59;;;;;;;3.15;2.00;;;;;;;20.68;66.22;97052.41;10138697;29;20053;-51
2023/06/23 14:57:18;;;;;;;3.28;1.95;;;;;;;20.67;66.18;97062.44;10147986;29;20040;-51
2023/06/23 15:02:38;;;;;;;2.10;1.90;;;;;;;20.68;66.17;97057.81;10148039;29;20076;-51
2023/06/23 15:07:58;;;;;;;3.83;2.08;;;;;;;20.67;65.91;97059.75;10147742;29;20048;-51
2023/06/23 15:13:17;;;;;;;3.00;2.03;;;;;;;20.67;65.99;97048.91;10147413;29;20390;-49
2023/06/23 15:18:37;;;;;;;1.83;1.70;;;;;;;20.66;65.95;97052.75;10134521;29;20064;-51
2023/06/23 15:23:57;;;;;;;2.25;2.00;;;;;;;20.67;66.08;97051.63;10147563;29;20041;-51
2023/06/23 15:29:16;;;;;;;3.00;1.80;;;;;;;20.67;66.07;97051.63;10147489;29;20449;-50
2023/06/23 15:34:36;;;;;;;2.25;2.00;;;;;;;20.67;66.17;97048.91;10147511;29;20123;-50
2023/06/23 15:39:56;;;;;;;2.88;2.00;;;;;;;20.67;65.92;97045.41;10147179;29;20044;-50
2023/06/23 15:45:15;;;;;;;3.08;1.73;;;;;;;20.68;66.01;97041.56;10147209;29;20428;-51
2023/06/23 15:50:35;;;;;;;1.98;1.77;;;;;;;20.67;65.93;97043.50;10140434;29;20059;-52
2023/06/23 15:55:55;;;;;;;1.90;1.73;;;;;;;20.67;65.94;97037.28;10146965;29;20048;-51
2023/06/23 16:01:15;;;;;;;2.17;1.80;;;;;;;20.68;65.98;97038.88;10146523;29;20051;-51
2023/06/23 16:06:35;;;;;;;2.53;1.80;;;;;;;20.66;65.88;97022.97;10146778;29;20044;-51
2023/06/23 16:11:55;;;;;;;2.17;1.85;;;;;;;20.68;66.04;97030.75;10146750;29;20041;-51
2023/06/23 16:17:15;;;;;;;2.20;1.75;;;;;;;20.66;65.82;97036.50;10146616;29;20048;-52
2023/06/23 16:22:35;;;;;;;3.22;1.63;;;;;;;20.67;65.76;97029.16;10147117;29;20052;-52
2023/06/23 16:27:54;;;;;;;1.92;1.75;;;;;;;20.66;65.88;97043.81;10153533;29;20049;-51
2023/06/23 16:33:14;;;;;;;1.88;1.60;;;;;;;20.66;65.81;97055.47;10153423;29;20382;-50
2023/06/23 16:38:33;;;;;;;2.00;1.70;;;;;;;20.66;65.70;97060.88;10153066;29;20457;-51
2023/06/23 16:43:54;;;;;;;1.90;1.70;;;;;;;20.66;65.63;97082.53;10152984;29;20481;-51
2023/06/23 16:49:13;;;;;;;1.90;1.70;;;;;;;20.66;65.76;97073.59;10150478;29;20417;-50
2023/06/23 16:54:34;;;;;;;2.67;1.80;;;;;;;20.66;65.63;97077.13;10152597;29;20055;-51
2023/06/23 16:59:53;;;;;;;2.55;1.83;;;;;;;20.66;65.54;97082.53;10152174;29;20052;-52
2023/06/23 17:05:14;;;;;;;2.58;1.75;;;;;;;20.65;65.57;97077.44;10151930;29;20048;-50
2023/06/23 17:10:33;;;;;;;2.35;1.40;;;;;;;20.66;65.67;97076.28;10152124;29;20065;-52
2023/06/23 17:15:53;;;;;;;1.77;1.50;;;;;;;20.65;65.50;97064.69;10151784;29;20063;-51
2023/06/23 17:21:12;;;;;;;1.83;1.40;;;;;;;20.65;65.61;97058.47;10151743;29;20045;-51
2023/06/23 17:26:32;;;;;;;1.85;1.42;;;;;;;20.66;65.66;97063.56;10151275;29;20049;-51
2023/06/23 17:31:51;;;;;;;2.88;1.80;;;;;;;20.65;65.47;97064.69;10151285;29;20049;-52
2023/06/23 17:37:11;;;;;;;2.08;1.75;;;;;;;20.65;65.50;97058.47;10150589;29;20059;-51
2023/06/23 17:42:30;;;;;;;2.20;1.50;;;;;;;20.65;65.50;97070.09;10138385;29;20056;-51
2023/06/23 17:47:50;;;;;;;1.83;1.50;;;;;;;20.65;65.38;97075.50;10138061;29;20053;-51
2023/06/23 17:53:09;;;;;;;1.88;1.58;;;;;;;20.65;65.40;97080.94;10130751;29;20048;-50
2023/06/23 17:58:30;;;;;;;2.17;1.40;;;;;;;20.65;65.51;97080.94;10137698;29;20060;-52
2023/06/23 18:03:50;;;;;;;1.63;1.42;;;;;;;20.64;65.35;97090.19;10149953;29;20052;-52
2023/06/23 18:09:09;;;;;;;1.60;1.50;;;;;;;20.64;65.57;97111.03;10149735;29;20041;-50
2023/06/23 18:14:29;;;;;;;1.67;1.40;;;;;;;20.64;65.41;97106.41;10149505;29;20049;-51
2023/06/23 18:19:49;;;;;;;1.40;1.30;;;;;;;20.63;65.34;97112.94;10136438;29;20518;-52
2023/06/23 18:25:08;;;;;;;1.30;1.20;;;;;;;20.63;65.41;97109.44;10149087;29;20099;-52
2023/06/23 18:30:29;;;;;;;1.67;1.30;;;;;;;20.63;65.19;97112.94;10136462;29;20052;-51
2023/06/23 18:35:49;;;;;;;1.50;1.30;;;;;;;20.63;65.34;97112.94;10148718;29;20489;-51
2023/06/23 18:41:08;;;;;;;1.60;1.20;;;;;;;20.64;65.28;97116.44;10134487;29;20460;-52
2023/06/23 18:46:28;;;;;;;1.73;1.50;;;;;;;20.63;65.21;97114.84;10147847;29;20048;-51
2023/06/23 18:51:47;;;;;;;1.55;1.40;;;;;;;20.63;65.33;97112.94;10135302;29;20059;-51
2023/06/23 18:57:07;;;;;;;1.98;1.58;;;;;;;20.62;65.29;97105.94;10148077;29;20096;-51
2023/06/23 19:02:26;;;;;;;1.40;1.30;;;;;;;20.62;65.17;97114.06;10135581;29;20052;-51
2023/06/23 19:07:46;;;;;;;1.38;1.27;;;;;;;20.63;65.09;97112.16;10134723;29;20057;-51
2023/06/23 19:13:07;;;;;;;1.38;1.27;;;;;;;20.62;65.18;97108.66;10134760;29;20072;-51
2023/06/23 19:18:26;;;;;;;1.45;1.30;;;;;;;20.62;65.18;97113.25;10147574;29;20048;-50
2023/06/23 19:23:46;;;;;;;1.17;1.08;;;;;;;20.61;65.15;97128.72;10147669;29;20105;-51
2023/06/23 19:29:06;;;;;;;1.50;1.40;;;;;;;20.62;65.13;97124.09;10141626;29;20044;-50
2023/06/23 19:34:27;;;;;;;1.20;1.10;;;;;;;20.62;64.97;97134.91;10146911;29;20425;-51
2023/06/23 19:39:46;;;;;;;1.30;1.10;;;;;;;20.61;65.16;97139.53;10147307;29;20048;-51
2023/06/23 19:45:06;;;;;;;1.45;1.30;;;;;;;20.61;64.98;97155.78;10146830;29;20044;-53
2023/06/23 19:50:26;;;;;;;0.95;0.88;;;;;;;20.61;64.98;97161.19;10141664;29;20064;-51
2023/06/23 19:55:45;;;;;;;1.20;1.10;;;;;;;20.60;65.04;97148.78;10147056;29;20045;-51
2023/06/23 20:01:05;;;;;;;1.20;1.10;;;;;;;20.61;64.99;97150.38;10154447;29;20101;-50
2023/06/23 20:06:26;;;;;;;1.67;0.90;;;;;;;20.62;64.90;97161.97;10141851;29;20053;-51
2023/06/23 20:11:45;;;;;;;1.20;1.10;;;;;;;20.61;64.84;97171.22;10139942;29;20048;-51
2023/06/23 20:17:05;;;;;;;1.50;1.20;;;;;;;20.60;64.84;97167.75;10154008;29;20049;-50
2023/06/23 20:22:25;;;;;;;1.13;1.02;;;;;;;20.61;64.80;97179.34;10153830;29;20056;-50
2023/06/23 20:27:45;;;;;;;1.15;1.05;;;;;;;20.59;64.75;97176.97;10153453;29;20093;-52
2023/06/23 20:33:05;;;;;;;1.17;1.08;;;;;;;20.59;64.71;97163.44;10145714;29;20450;-50
2023/06/23 20:38:24;;;;;;;1.23;1.00;;;;;;;20.60;64.78;97158.81;10153040;29;20048;-51
2023/06/23 20:43:43;;;;;;;1.40;1.23;;;;;;;20.60;64.65;97159.63;10152949;29;20056;-51
2023/06/23 20:49:03;;;;;;;1.52;1.00;;;;;;;20.59;64.67;97168.84;10150971;29;20076;-51
2023/06/23 20:54:22;;;;;;;1.40;1.10;;;;;;;20.59;64.61;97179.66;10138364;29;20104;-51
2023/06/23 20:59:42;;;;;;;1.40;0.90;;;;;;;20.60;64.61;97191.28;10152501;29;20041;-50
2023/06/23 21:05:01;;;;;;;1.13;1.00;;;;;;;20.59;64.58;97195.91;10152183;29;20512;-50
2023/06/23 21:10:21;;;;;;;1.20;1.10;;;;;;;20.59;64.52;97211.34;10151476;29;20051;-51
2023/06/23 21:15:40;;;;;;;1.00;0.90;;;;;;;20.58;64.74;97228.69;10152132;29;20052;-50
2023/06/23 21:21:00;;;;;;;0.80;0.80;;;;;;;20.59;64.58;97238.41;10151760;29;20052;-51
2023/06/23 21:26:20;;;;;;;1.25;1.08;;;;;;;20.58;64.52;97253.84;10139115;29;20048;-51
2023/06/23 21:31:39;;;;;;;0.73;0.73;;;;;;;20.57;64.46;97252.25;10151543;29;20041;-50
2023/06/23 21:36:59;;;;;;;0.90;0.90;;;;;;;20.58;64.45;97259.28;10138606;29;20053;-51
2023/06/23 21:42:18;;;;;;;0.85;0.85;;;;;;;20.57;64.51;97257.66;10151013;29;20041;-51
2023/06/23 21:47:38;;;;;;;0.93;0.90;;;;;;;20.58;64.36;97263.88;10084421;29;20064;-51
2023/06/23 21:52:58;;;;;;;0.98;0.82;;;;;;;20.58;64.56;97270.09;10100037;29;20057;-52
2023/06/23 21:58:17;;;;;;;0.88;0.85;;;;;;;20.57;64.34;97282.03;10111580;29;20049;-51
2023/06/23 22:03:37;;;;;;;1.42;1.10;;;;;;;20.57;64.38;97275.81;10111345;29;20061;-50
2023/06/23 22:08:56;;;;;;;0.70;0.70;;;;;;;20.56;64.30;97283.13;10111204;29;20052;-51
2023/06/23 22:14:17;;;;;;;0.77;0.77;;;;;;;20.56;64.26;97296.66;10111011;29;20052;-51
2023/06/23 22:19:37;;;;;;;0.80;0.80;;;;;;;20.56;64.40;97296.66;10110933;29;20041;-50
2023/06/23 22:24:56;;;;;;;2.72;0.80;;;;;;;20.56;64.32;97312.91;10110350;29;20053;-51
2023/06/23 22:30:16;;;;;;;0.80;0.80;;;;;;;20.56;64.41;97315.59;10110392;29;20049;-51
2023/06/23 22:35:35;;;;;;;1.02;0.85;;;;;;;20.56;64.34;97323.72;10124929;29;20052;-51
2023/06/23 22:40:55;;;;;;;0.90;0.80;;;;;;;20.56;64.39;97334.56;10148744;29;20037;-51
2023/06/23 22:46:14;;;;;;;1.00;0.82;;;;;;;20.54;64.33;97324.06;10148506;29;20445;-51
2023/06/23 22:51:33;;;;;;;0.77;0.77;;;;;;;20.55;64.26;97327.56;10121349;29;20425;-51
2023/06/23 22:56:53;;;;;;;1.23;0.90;;;;;;;20.55;64.36;97338.38;10148386;29;20117;-51
2023/06/23 23:02:13;;;;;;;0.70;0.70;;;;;;;20.54;64.31;97334.06;10148134;29;20489;-51
2023/06/23 23:07:33;;;;;;;1.00;0.90;;;;;;;20.54;64.31;97339.50;10147932;29;20049;-51
2023/06/23 23:12:53;;;;;;;0.70;0.70;;;;;;;20.53;64.32;97343.31;10147850;29;20048;-51
2023/06/23 23:18:12;;;;;;;0.60;0.60;;;;;;;20.54;64.35;97347.59;10147752;29;20409;-52
2023/06/23 23:23:33;;;;;;;0.70;0.70;;;;;;;20.53;64.24;97346.03;10147590;29;20044;-51
2023/06/23 23:28:53;;;;;;;0.82;0.70;;;;;;;20.51;64.30;97346.34;10147518;29;20044;-50
2023/06/23 23:34:13;;;;;;;0.98;0.80;;;;;;;20.53;64.28;97351.44;10152370;29;20101;-49
2023/06/23 23:39:33;;;;;;;0.68;0.65;;;;;;;20.52;64.23;97363.38;10142414;29;20131;-51
2023/06/23 23:44:52;;;;;;;0.90;0.70;;;;;;;20.51;64.25;97362.59;10155093;29;20048;-51
2023/06/23 23:50:12;;;;;;;0.70;0.70;;;;;;;20.52;64.23;97374.19;10150266;29;20504;-51
2023/06/23 23:55:31;;;;;;;0.70;0.70;;;;;;;20.51;64.18;97369.91;10140736;29;20416;-51
